sensor_id;sensor_type;location;lat;lon;timestamp;pressure;altitude;pressure_sealevel;temperature
42197;BMP280;27866;48.146;17.098;2023-04-24T00:03:19;98604.13;;;17.78
42197;BMP280;27866;48.146;17.098;2023-04-24T00:07:32;98604.25;;;17.84
42197;BMP280;27866;48.146;17.098;2023-04-24T00:11:43;98602.72;;;17.90
42197;BMP280;27866;48.146;17.098;2023-04-24T00:15:55;98590.28;;;17.92
42197;BMP280;27866;48.146;17.098;2023-04-24T00:20:07;98591.56;;;17.96
42197;BMP280;27866;48.146;17.098;2023-04-24T00:24:19;98581.53;;;17.99
42197;BMP280;27866;48.146;17.098;2023-04-24T00:28:30;98577.13;;;17.99
42197;BMP280;27866;48.146;17.098;2023-04-24T00:32:41;98575.84;;;17.96
42197;BMP280;27866;48.146;17.098;2023-04-24T00:36:52;98583.06;;;17.94
42197;BMP280;27866;48.146;17.098;2023-04-24T00:41:04;98562.47;;;17.91
42197;BMP280;27866;48.146;17.098;2023-04-24T00:45:15;98562.00;;;17.87
42197;BMP280;27866;48.146;17.098;2023-04-24T00:49:27;98556.59;;;17.89
42197;BMP280;27866;48.146;17.098;2023-04-24T00:53:38;98539.88;;;17.90
42197;BMP280;27866;48.146;17.098;2023-04-24T00:57:49;98548.91;;;17.87
42197;BMP280;27866;48.146;17.098;2023-04-24T01:02:01;98546.75;;;17.91
42197;BMP280;27866;48.146;17.098;2023-04-24T01:06:13;98550.88;;;17.85
42197;BMP280;27866;48.146;17.098;2023-04-24T01:10:26;98555.31;;;17.85
42197;BMP280;27866;48.146;17.098;2023-04-24T01:14:38;98553.03;;;17.82
42197;BMP280;27866;48.146;17.098;2023-04-24T01:18:49;98542.81;;;17.73
42197;BMP280;27866;48.146;17.098;2023-04-24T01:23:03;98534.47;;;17.69
42197;BMP280;27866;48.146;17.098;2023-04-24T01:27:14;98551.50;;;17.73
42197;BMP280;27866;48.146;17.098;2023-04-24T01:31:26;98548.06;;;17.73
42197;BMP280;27866;48.146;17.098;2023-04-24T01:35:38;98537.41;;;17.74
42197;BMP280;27866;48.146;17.098;2023-04-24T01:39:49;98531.66;;;17.79
42197;BMP280;27866;48.146;17.098;2023-04-24T01:44:00;98528.25;;;17.70
42197;BMP280;27866;48.146;17.098;2023-04-24T01:48:13;98521.72;;;17.67
42197;BMP280;27866;48.146;17.098;2023-04-24T01:52:24;98521.69;;;17.74
42197;BMP280;27866;48.146;17.098;2023-04-24T01:56:36;98527.94;;;17.73
42197;BMP280;27866;48.146;17.098;2023-04-24T02:00:49;98521.72;;;17.67
42197;BMP280;27866;48.146;17.098;2023-04-24T02:05:00;98513.94;;;17.59
42197;BMP280;27866;48.146;17.098;2023-04-24T02:09:12;98520.31;;;17.64
42197;BMP280;27866;48.146;17.098;2023-04-24T02:13:23;98512.44;;;17.64
42197;BMP280;27866;48.146;17.098;2023-04-24T02:17:34;98500.31;;;17.63
42197;BMP280;27866;48.146;17.098;2023-04-24T02:21:46;98503.88;;;17.70
42197;BMP280;27866;48.146;17.098;2023-04-24T02:25:57;98511.41;;;17.73
42197;BMP280;27866;48.146;17.098;2023-04-24T02:30:09;98513.22;;;17.65
42197;BMP280;27866;48.146;17.098;2023-04-24T02:34:21;98507.91;;;17.58
42197;BMP280;27866;48.146;17.098;2023-04-24T02:38:32;98507.09;;;17.58
42197;BMP280;27866;48.146;17.098;2023-04-24T02:42:43;98501.22;;;17.56
42197;BMP280;27866;48.146;17.098;2023-04-24T02:46:54;98507.16;;;17.50
42197;BMP280;27866;48.146;17.098;2023-04-24T02:51:07;98498.91;;;17.39
42197;BMP280;27866;48.146;17.098;2023-04-24T02:55:19;98495.47;;;17.39
42197;BMP280;27866;48.146;17.098;2023-04-24T02:59:32;98488.50;;;17.31
42197;BMP280;27866;48.146;17.098;2023-04-24T03:03:43;98484.78;;;17.26
42197;BMP280;27866;48.146;17.098;2023-04-24T03:07:54;98491.19;;;17.24
42197;BMP280;27866;48.146;17.098;2023-04-24T03:12:06;98486.88;;;17.30
42197;BMP280;27866;48.146;17.098;2023-04-24T03:16:17;98493.69;;;17.39
42197;BMP280;27866;48.146;17.098;2023-04-24T03:20:29;98475.75;;;17.50
42197;BMP280;27866;48.146;17.098;2023-04-24T03:24:42;98485.84;;;17.53
42197;BMP280;27866;48.146;17.098;2023-04-24T03:28:53;98494.19;;;17.56
42197;BMP280;27866;48.146;17.098;2023-04-24T03:33:06;98493.19;;;17.57
42197;BMP280;27866;48.146;17.098;2023-04-24T03:37:21;98489.66;;;17.65
42197;BMP280;27866;48.146;17.098;2023-04-24T03:41:42;98485.97;;;17.59
42197;BMP280;27866;48.146;17.098;2023-04-24T03:45:58;98495.34;;;17.54
42197;BMP280;27866;48.146;17.098;2023-04-24T03:50:10;98495.78;;;17.43
42197;BMP280;27866;48.146;17.098;2023-04-24T03:54:22;98488.88;;;17.28
42197;BMP280;27866;48.146;17.098;2023-04-24T03:58:35;98493.38;;;17.12
42197;BMP280;27866;48.146;17.098;2023-04-24T04:02:46;98496.09;;;16.97
42197;BMP280;27866;48.146;17.098;2023-04-24T04:06:58;98481.66;;;16.79
42197;BMP280;27866;48.146;17.098;2023-04-24T04:11:12;98494.94;;;16.70
42197;BMP280;27866;48.146;17.098;2023-04-24T04:15:23;98491.03;;;16.66
42197;BMP280;27866;48.146;17.098;2023-04-24T04:19:35;98501.31;;;16.67
42197;BMP280;27866;48.146;17.098;2023-04-24T04:23:47;98503.75;;;16.69
42197;BMP280;27866;48.146;17.098;2023-04-24T04:28:05;98503.13;;;16.67
42197;BMP280;27866;48.146;17.098;2023-04-24T04:32:17;98492.94;;;16.72
42197;BMP280;27866;48.146;17.098;2023-04-24T04:36:28;98494.22;;;16.83
42197;BMP280;27866;48.146;17.098;2023-04-24T04:40:48;98489.41;;;16.95
42197;BMP280;27866;48.146;17.098;2023-04-24T04:45:01;98492.63;;;17.04
42197;BMP280;27866;48.146;17.098;2023-04-24T04:49:25;98491.53;;;17.21
42197;BMP280;27866;48.146;17.098;2023-04-24T04:53:40;98501.41;;;17.33
42197;BMP280;27866;48.146;17.098;2023-04-24T04:57:52;98496.56;;;17.44
42197;BMP280;27866;48.146;17.098;2023-04-24T05:02:03;98493.81;;;17.59
42197;BMP280;27866;48.146;17.098;2023-04-24T05:06:15;98495.50;;;17.74
42197;BMP280;27866;48.146;17.098;2023-04-24T05:10:28;98489.94;;;17.91
42197;BMP280;27866;48.146;17.098;2023-04-24T05:14:41;98501.00;;;18.15
42197;BMP280;27866;48.146;17.098;2023-04-24T05:18:53;98503.25;;;18.18
42197;BMP280;27866;48.146;17.098;2023-04-24T05:23:09;98504.25;;;18.17
42197;BMP280;27866;48.146;17.098;2023-04-24T05:27:24;98514.72;;;18.17
42197;BMP280;27866;48.146;17.098;2023-04-24T05:31:35;98511.38;;;18.09
42197;BMP280;27866;48.146;17.098;2023-04-24T05:35:48;98517.97;;;18.05
42197;BMP280;27866;48.146;17.098;2023-04-24T05:39:59;98520.59;;;18.47
42197;BMP280;27866;48.146;17.098;2023-04-24T05:44:11;98524.22;;;18.74
42197;BMP280;27866;48.146;17.098;2023-04-24T05:48:22;98525.97;;;18.87
42197;BMP280;27866;48.146;17.098;2023-04-24T05:52:34;98521.13;;;19.19
42197;BMP280;27866;48.146;17.098;2023-04-24T05:56:49;98519.19;;;19.27
42197;BMP280;27866;48.146;17.098;2023-04-24T06:01:11;98523.22;;;19.64
42197;BMP280;27866;48.146;17.098;2023-04-24T06:05:23;98519.28;;;19.74
42197;BMP280;27866;48.146;17.098;2023-04-24T06:09:37;98529.97;;;19.52
42197;BMP280;27866;48.146;17.098;2023-04-24T06:13:49;98529.44;;;20.30
42197;BMP280;27866;48.146;17.098;2023-04-24T06:18:38;98526.88;;;21.21
42197;BMP280;27866;48.146;17.098;2023-04-24T06:22:49;98513.03;;;21.83
42197;BMP280;27866;48.146;17.098;2023-04-24T06:27:01;98517.88;;;21.99
42197;BMP280;27866;48.146;17.098;2023-04-24T06:31:12;98514.22;;;22.00
42197;BMP280;27866;48.146;17.098;2023-04-24T06:35:23;98513.59;;;22.23
42197;BMP280;27866;48.146;17.098;2023-04-24T06:39:35;98505.66;;;22.35
42197;BMP280;27866;48.146;17.098;2023-04-24T06:43:46;98501.41;;;22.22
42197;BMP280;27866;48.146;17.098;2023-04-24T06:47:57;98508.22;;;23.22
42197;BMP280;27866;48.146;17.098;2023-04-24T06:52:09;98498.72;;;23.81
42197;BMP280;27866;48.146;17.098;2023-04-24T06:56:20;98510.31;;;24.04
42197;BMP280;27866;48.146;17.098;2023-04-24T07:00:32;98502.88;;;25.12
42197;BMP280;27866;48.146;17.098;2023-04-24T07:04:43;98486.28;;;26.35
42197;BMP280;27866;48.146;17.098;2023-04-24T07:08:54;98478.94;;;26.64
42197;BMP280;27866;48.146;17.098;2023-04-24T07:13:06;98486.41;;;25.49
42197;BMP280;27866;48.146;17.098;2023-04-24T07:17:19;98475.25;;;25.01
42197;BMP280;27866;48.146;17.098;2023-04-24T07:21:30;98483.81;;;27.70
42197;BMP280;27866;48.146;17.098;2023-04-24T07:25:42;98491.28;;;29.47
42197;BMP280;27866;48.146;17.098;2023-04-24T07:29:53;98495.91;;;31.33
42197;BMP280;27866;48.146;17.098;2023-04-24T07:34:04;98493.91;;;31.14
42197;BMP280;27866;48.146;17.098;2023-04-24T07:38:16;98498.81;;;27.76
42197;BMP280;27866;48.146;17.098;2023-04-24T07:42:28;98501.09;;;25.63
42197;BMP280;27866;48.146;17.098;2023-04-24T07:46:41;98496.06;;;24.98
42197;BMP280;27866;48.146;17.098;2023-04-24T07:50:53;98513.16;;;24.26
42197;BMP280;27866;48.146;17.098;2023-04-24T07:55:05;98509.31;;;24.22
42197;BMP280;27866;48.146;17.098;2023-04-24T07:59:16;98519.75;;;23.64
42197;BMP280;27866;48.146;17.098;2023-04-24T08:03:28;98519.69;;;23.46
42197;BMP280;27866;48.146;17.098;2023-04-24T08:07:39;98522.97;;;23.42
42197;BMP280;27866;48.146;17.098;2023-04-24T08:11:50;98520.56;;;23.64
42197;BMP280;27866;48.146;17.098;2023-04-24T08:16:01;98516.91;;;23.65
42197;BMP280;27866;48.146;17.098;2023-04-24T08:20:13;98515.72;;;23.61
42197;BMP280;27866;48.146;17.098;2023-04-24T08:24:24;98523.25;;;23.58
42197;BMP280;27866;48.146;17.098;2023-04-24T08:28:36;98518.38;;;23.91
42197;BMP280;27866;48.146;17.098;2023-04-24T08:32:48;98519.72;;;23.70
42197;BMP280;27866;48.146;17.098;2023-04-24T08:36:59;98521.72;;;22.95
42197;BMP280;27866;48.146;17.098;2023-04-24T08:41:10;98523.28;;;23.22
42197;BMP280;27866;48.146;17.098;2023-04-24T08:45:22;98519.63;;;23.16
42197;BMP280;27866;48.146;17.098;2023-04-24T08:49:34;98531.69;;;23.42
42197;BMP280;27866;48.146;17.098;2023-04-24T08:53:47;98524.03;;;22.73
42197;BMP280;27866;48.146;17.098;2023-04-24T08:57:59;98529.63;;;21.90
42197;BMP280;27866;48.146;17.098;2023-04-24T09:02:12;98535.25;;;21.49
42197;BMP280;27866;48.146;17.098;2023-04-24T09:06:24;98543.91;;;21.25
42197;BMP280;27866;48.146;17.098;2023-04-24T09:10:37;98542.31;;;20.91
42197;BMP280;27866;48.146;17.098;2023-04-24T09:14:49;98548.72;;;20.76
42197;BMP280;27866;48.146;17.098;2023-04-24T09:19:01;98542.19;;;20.66
42197;BMP280;27866;48.146;17.098;2023-04-24T09:23:18;98552.44;;;20.55
42197;BMP280;27866;48.146;17.098;2023-04-24T09:27:29;98547.25;;;20.67
42197;BMP280;27866;48.146;17.098;2023-04-24T09:31:40;98550.28;;;20.64
42197;BMP280;27866;48.146;17.098;2023-04-24T09:35:52;98554.41;;;20.79
42197;BMP280;27866;48.146;17.098;2023-04-24T09:40:15;98569.78;;;20.76
42197;BMP280;27866;48.146;17.098;2023-04-24T09:44:28;98552.28;;;20.62
42197;BMP280;27866;48.146;17.098;2023-04-24T09:48:39;98565.59;;;20.55
42197;BMP280;27866;48.146;17.098;2023-04-24T09:53:01;98570.81;;;20.48
42197;BMP280;27866;48.146;17.098;2023-04-24T09:57:14;98567.09;;;20.37
42197;BMP280;27866;48.146;17.098;2023-04-24T10:01:33;98579.34;;;20.24
42197;BMP280;27866;48.146;17.098;2023-04-24T10:05:46;98572.09;;;20.05
42197;BMP280;27866;48.146;17.098;2023-04-24T10:09:58;98590.53;;;19.91
42197;BMP280;27866;48.146;17.098;2023-04-24T10:14:16;98601.75;;;19.79
42197;BMP280;27866;48.146;17.098;2023-04-24T10:18:27;98603.13;;;19.55
42197;BMP280;27866;48.146;17.098;2023-04-24T10:22:40;98592.88;;;19.80
42197;BMP280;27866;48.146;17.098;2023-04-24T10:26:52;98599.81;;;19.87
42197;BMP280;27866;48.146;17.098;2023-04-24T10:31:03;98612.81;;;19.95
42197;BMP280;27866;48.146;17.098;2023-04-24T10:35:15;98611.09;;;20.08
42197;BMP280;27866;48.146;17.098;2023-04-24T10:39:28;98627.56;;;20.16
42197;BMP280;27866;48.146;17.098;2023-04-24T10:43:42;98619.75;;;20.02
42197;BMP280;27866;48.146;17.098;2023-04-24T10:48:15;98624.28;;;20.29
42197;BMP280;27866;48.146;17.098;2023-04-24T10:52:47;98632.75;;;20.10
42197;BMP280;27866;48.146;17.098;2023-04-24T11:01:38;98626.22;;;20.00
42197;BMP280;27866;48.146;17.098;2023-04-24T11:10:26;98627.97;;;20.14
42197;BMP280;27866;48.146;17.098;2023-04-24T11:19:20;98624.59;;;19.79
42197;BMP280;27866;48.146;17.098;2023-04-24T11:23:36;98620.16;;;19.59
42197;BMP280;27866;48.146;17.098;2023-04-24T11:27:49;98627.13;;;19.52
42197;BMP280;27866;48.146;17.098;2023-04-24T11:32:27;98629.84;;;19.44
42197;BMP280;27866;48.146;17.098;2023-04-24T11:36:40;98619.25;;;19.52
42197;BMP280;27866;48.146;17.098;2023-04-24T11:40:53;98626.84;;;20.02
42197;BMP280;27866;48.146;17.098;2023-04-24T11:45:14;98628.16;;;20.32
42197;BMP280;27866;48.146;17.098;2023-04-24T11:49:26;98631.28;;;20.75
42197;BMP280;27866;48.146;17.098;2023-04-24T11:53:37;98615.28;;;21.03
42197;BMP280;27866;48.146;17.098;2023-04-24T11:57:53;98629.97;;;20.91
42197;BMP280;27866;48.146;17.098;2023-04-24T12:02:04;98620.88;;;20.61
42197;BMP280;27866;48.146;17.098;2023-04-24T12:06:17;98625.06;;;20.49
42197;BMP280;27866;48.146;17.098;2023-04-24T12:10:31;98626.22;;;20.74
42197;BMP280;27866;48.146;17.098;2023-04-24T12:14:53;98613.25;;;21.05
42197;BMP280;27866;48.146;17.098;2023-04-24T12:19:05;98614.38;;;21.87
42197;BMP280;27866;48.146;17.098;2023-04-24T12:23:34;98608.31;;;21.87
42197;BMP280;27866;48.146;17.098;2023-04-24T12:27:53;98622.31;;;21.35
42197;BMP280;27866;48.146;17.098;2023-04-24T12:32:04;98610.00;;;21.03
42197;BMP280;27866;48.146;17.098;2023-04-24T12:36:15;98619.78;;;20.49
42197;BMP280;27866;48.146;17.098;2023-04-24T12:40:27;98625.00;;;20.02
42197;BMP280;27866;48.146;17.098;2023-04-24T12:44:39;98623.50;;;20.14
42197;BMP280;27866;48.146;17.098;2023-04-24T12:48:51;98619.38;;;20.05
42197;BMP280;27866;48.146;17.098;2023-04-24T12:53:02;98610.13;;;19.69
42197;BMP280;27866;48.146;17.098;2023-04-24T12:57:13;98607.88;;;19.66
42197;BMP280;27866;48.146;17.098;2023-04-24T13:01:25;98611.56;;;19.51
42197;BMP280;27866;48.146;17.098;2023-04-24T13:05:39;98606.94;;;19.53
42197;BMP280;27866;48.146;17.098;2023-04-24T13:09:51;98612.88;;;19.61
42197;BMP280;27866;48.146;17.098;2023-04-24T13:14:03;98595.56;;;19.32
42197;BMP280;27866;48.146;17.098;2023-04-24T13:18:14;98598.03;;;19.19
42197;BMP280;27866;48.146;17.098;2023-04-24T13:22:26;98594.63;;;19.39
42197;BMP280;27866;48.146;17.098;2023-04-24T13:26:38;98602.44;;;19.33
42197;BMP280;27866;48.146;17.098;2023-04-24T13:30:50;98602.00;;;19.29
42197;BMP280;27866;48.146;17.098;2023-04-24T13:35:02;98597.91;;;19.27
42197;BMP280;27866;48.146;17.098;2023-04-24T13:39:13;98596.84;;;19.22
42197;BMP280;27866;48.146;17.098;2023-04-24T13:43:31;98592.41;;;19.22
42197;BMP280;27866;48.146;17.098;2023-04-24T13:47:42;98590.44;;;19.10
42197;BMP280;27866;48.146;17.098;2023-04-24T13:51:55;98585.09;;;19.18
42197;BMP280;27866;48.146;17.098;2023-04-24T13:56:06;98589.78;;;19.36
42197;BMP280;27866;48.146;17.098;2023-04-24T14:00:19;98588.56;;;19.53
42197;BMP280;27866;48.146;17.098;2023-04-24T14:04:31;98578.56;;;19.62
42197;BMP280;27866;48.146;17.098;2023-04-24T14:08:42;98578.41;;;19.50
42197;BMP280;27866;48.146;17.098;2023-04-24T14:12:53;98578.28;;;19.23
42197;BMP280;27866;48.146;17.098;2023-04-24T14:17:05;98577.91;;;19.06
42197;BMP280;27866;48.146;17.098;2023-04-24T14:21:17;98587.56;;;18.91
42197;BMP280;27866;48.146;17.098;2023-04-24T14:25:29;98580.81;;;18.83
42197;BMP280;27866;48.146;17.098;2023-04-24T14:29:41;98582.34;;;18.49
42197;BMP280;27866;48.146;17.098;2023-04-24T14:33:52;98583.41;;;18.27
42197;BMP280;27866;48.146;17.098;2023-04-24T14:38:03;98595.31;;;18.15
42197;BMP280;27866;48.146;17.098;2023-04-24T14:42:14;98585.88;;;17.92
42197;BMP280;27866;48.146;17.098;2023-04-24T14:46:27;98585.81;;;17.78
42197;BMP280;27866;48.146;17.098;2023-04-24T14:50:39;98585.16;;;17.54
42197;BMP280;27866;48.146;17.098;2023-04-24T14:54:50;98586.66;;;17.49
42197;BMP280;27866;48.146;17.098;2023-04-24T14:59:02;98591.72;;;17.51
42197;BMP280;27866;48.146;17.098;2023-04-24T15:03:14;98578.88;;;17.41
42197;BMP280;27866;48.146;17.098;2023-04-24T15:07:26;98576.41;;;17.40
42197;BMP280;27866;48.146;17.098;2023-04-24T15:11:37;98578.28;;;17.54
42197;BMP280;27866;48.146;17.098;2023-04-24T15:15:48;98589.63;;;17.68
42197;BMP280;27866;48.146;17.098;2023-04-24T15:19:59;98587.81;;;17.68
42197;BMP280;27866;48.146;17.098;2023-04-24T15:24:12;98583.75;;;17.66
42197;BMP280;27866;48.146;17.098;2023-04-24T15:28:24;98583.00;;;17.58
42197;BMP280;27866;48.146;17.098;2023-04-24T15:32:36;98595.72;;;17.61
42197;BMP280;27866;48.146;17.098;2023-04-24T15:36:47;98591.06;;;17.27
42197;BMP280;27866;48.146;17.098;2023-04-24T15:40:58;98597.66;;;17.15
42197;BMP280;27866;48.146;17.098;2023-04-24T15:45:10;98605.28;;;16.95
42197;BMP280;27866;48.146;17.098;2023-04-24T15:49:22;98606.31;;;16.86
42197;BMP280;27866;48.146;17.098;2023-04-24T15:53:33;98608.22;;;17.00
42197;BMP280;27866;48.146;17.098;2023-04-24T15:57:45;98613.66;;;17.20
42197;BMP280;27866;48.146;17.098;2023-04-24T16:01:56;98615.66;;;17.40
42197;BMP280;27866;48.146;17.098;2023-04-24T16:06:07;98627.41;;;17.44
42197;BMP280;27866;48.146;17.098;2023-04-24T16:10:19;98623.31;;;17.49
42197;BMP280;27866;48.146;17.098;2023-04-24T16:14:30;98631.69;;;17.67
42197;BMP280;27866;48.146;17.098;2023-04-24T16:18:42;98634.47;;;17.65
42197;BMP280;27866;48.146;17.098;2023-04-24T16:22:53;98636.50;;;17.55
42197;BMP280;27866;48.146;17.098;2023-04-24T16:27:04;98634.16;;;17.68
42197;BMP280;27866;48.146;17.098;2023-04-24T16:31:15;98636.13;;;17.66
42197;BMP280;27866;48.146;17.098;2023-04-24T16:35:27;98639.94;;;17.56
42197;BMP280;27866;48.146;17.098;2023-04-24T16:39:38;98642.84;;;17.61
42197;BMP280;27866;48.146;17.098;2023-04-24T16:43:54;98642.84;;;17.61
42197;BMP280;27866;48.146;17.098;2023-04-24T16:48:05;98644.13;;;17.65
42197;BMP280;27866;48.146;17.098;2023-04-24T16:52:17;98644.56;;;17.76
42197;BMP280;27866;48.146;17.098;2023-04-24T16:56:28;98648.38;;;17.73
42197;BMP280;27866;48.146;17.098;2023-04-24T17:00:40;98653.59;;;17.73
42197;BMP280;27866;48.146;17.098;2023-04-24T17:04:51;98658.34;;;17.70
42197;BMP280;27866;48.146;17.098;2023-04-24T17:09:03;98653.25;;;17.47
42197;BMP280;27866;48.146;17.098;2023-04-24T17:13:14;98677.50;;;17.04
42197;BMP280;27866;48.146;17.098;2023-04-24T17:17:26;98679.25;;;16.58
42197;BMP280;27866;48.146;17.098;2023-04-24T17:21:37;98692.19;;;15.98
42197;BMP280;27866;48.146;17.098;2023-04-24T17:25:48;98698.09;;;15.52
42197;BMP280;27866;48.146;17.098;2023-04-24T17:30:00;98710.78;;;15.47
42197;BMP280;27866;48.146;17.098;2023-04-24T17:34:11;98699.00;;;15.28
42197;BMP280;27866;48.146;17.098;2023-04-24T17:38:23;98699.91;;;15.11
42197;BMP280;27866;48.146;17.098;2023-04-24T17:42:34;98708.56;;;15.12
42197;BMP280;27866;48.146;17.098;2023-04-24T17:46:47;98708.34;;;15.06
42197;BMP280;27866;48.146;17.098;2023-04-24T17:50:59;98710.63;;;15.01
42197;BMP280;27866;48.146;17.098;2023-04-24T17:55:10;98722.25;;;15.14
42197;BMP280;27866;48.146;17.098;2023-04-24T17:59:21;98723.06;;;15.14
42197;BMP280;27866;48.146;17.098;2023-04-24T18:03:34;98719.03;;;15.20
42197;BMP280;27866;48.146;17.098;2023-04-24T18:07:45;98718.19;;;15.19
42197;BMP280;27866;48.146;17.098;2023-04-24T18:11:56;98725.84;;;15.13
42197;BMP280;27866;48.146;17.098;2023-04-24T18:16:07;98731.69;;;15.07
42197;BMP280;27866;48.146;17.098;2023-04-24T18:20:19;98730.84;;;15.07
42197;BMP280;27866;48.146;17.098;2023-04-24T18:24:31;98753.03;;;15.10
42197;BMP280;27866;48.146;17.098;2023-04-24T18:28:43;98740.28;;;15.07
42197;BMP280;27866;48.146;17.098;2023-04-24T18:32:55;98734.13;;;15.08
42197;BMP280;27866;48.146;17.098;2023-04-24T18:37:07;98756.66;;;15.17
42197;BMP280;27866;48.146;17.098;2023-04-24T18:41:18;98759.06;;;15.11
42197;BMP280;27866;48.146;17.098;2023-04-24T18:45:29;98760.53;;;15.13
42197;BMP280;27866;48.146;17.098;2023-04-24T18:49:41;98760.28;;;15.24
42197;BMP280;27866;48.146;17.098;2023-04-24T18:53:52;98764.53;;;15.33
42197;BMP280;27866;48.146;17.098;2023-04-24T18:58:03;98765.22;;;15.35
42197;BMP280;27866;48.146;17.098;2023-04-24T19:02:15;98764.91;;;15.37
42197;BMP280;27866;48.146;17.098;2023-04-24T19:06:26;98760.34;;;15.39
42197;BMP280;27866;48.146;17.098;2023-04-24T19:10:38;98771.44;;;15.49
42197;BMP280;27866;48.146;17.098;2023-04-24T19:14:49;98769.84;;;15.48
42197;BMP280;27866;48.146;17.098;2023-04-24T19:19:01;98771.97;;;15.52
42197;BMP280;27866;48.146;17.098;2023-04-24T19:23:13;98773.09;;;15.50
42197;BMP280;27866;48.146;17.098;2023-04-24T19:27:24;98779.78;;;15.45
42197;BMP280;27866;48.146;17.098;2023-04-24T19:31:35;98772.78;;;15.45
42197;BMP280;27866;48.146;17.098;2023-04-24T19:35:47;98775.88;;;15.49
42197;BMP280;27866;48.146;17.098;2023-04-24T19:39:58;98783.84;;;15.47
42197;BMP280;27866;48.146;17.098;2023-04-24T19:44:10;98782.69;;;15.42
42197;BMP280;27866;48.146;17.098;2023-04-24T19:48:21;98777.84;;;15.54
42197;BMP280;27866;48.146;17.098;2023-04-24T19:52:32;98786.19;;;15.58
42197;BMP280;27866;48.146;17.098;2023-04-24T19:56:43;98779.31;;;15.57
42197;BMP280;27866;48.146;17.098;2023-04-24T20:00:56;98782.75;;;15.57
42197;BMP280;27866;48.146;17.098;2023-04-24T20:05:08;98783.38;;;15.51
42197;BMP280;27866;48.146;17.098;2023-04-24T20:09:19;98776.38;;;15.52
42197;BMP280;27866;48.146;17.098;2023-04-24T20:13:30;98775.38;;;15.53
42197;BMP280;27866;48.146;17.098;2023-04-24T20:17:43;98771.16;;;15.52
42197;BMP280;27866;48.146;17.098;2023-04-24T20:21:54;98778.03;;;15.61
42197;BMP280;27866;48.146;17.098;2023-04-24T20:26:05;98770.38;;;15.67
42197;BMP280;27866;48.146;17.098;2023-04-24T20:30:18;98770.38;;;15.67
42197;BMP280;27866;48.146;17.098;2023-04-24T20:34:30;98776.47;;;15.75
42197;BMP280;27866;48.146;17.098;2023-04-24T20:38:41;98768.94;;;15.72
42197;BMP280;27866;48.146;17.098;2023-04-24T20:42:53;98754.59;;;15.76
42197;BMP280;27866;48.146;17.098;2023-04-24T20:47:05;98778.06;;;15.68
42197;BMP280;27866;48.146;17.098;2023-04-24T20:51:17;98776.44;;;15.67
42197;BMP280;27866;48.146;17.098;2023-04-24T20:55:29;98780.47;;;15.54
42197;BMP280;27866;48.146;17.098;2023-04-24T20:59:40;98769.50;;;15.51
42197;BMP280;27866;48.146;17.098;2023-04-24T21:03:52;98764.47;;;15.57
42197;BMP280;27866;48.146;17.098;2023-04-24T21:08:03;98767.78;;;15.67
42197;BMP280;27866;48.146;17.098;2023-04-24T21:12:14;98765.31;;;15.58
42197;BMP280;27866;48.146;17.098;2023-04-24T21:16:25;98780.31;;;15.56
42197;BMP280;27866;48.146;17.098;2023-04-24T21:20:37;98776.03;;;15.55
42197;BMP280;27866;48.146;17.098;2023-04-24T21:24:48;98774.41;;;15.54
42197;BMP280;27866;48.146;17.098;2023-04-24T21:29:00;98778.31;;;15.50
42197;BMP280;27866;48.146;17.098;2023-04-24T21:33:11;98767.84;;;15.42
42197;BMP280;27866;48.146;17.098;2023-04-24T21:37:23;98760.19;;;15.41
42197;BMP280;27866;48.146;17.098;2023-04-24T21:41:34;98773.19;;;15.33
42197;BMP280;27866;48.146;17.098;2023-04-24T21:45:46;98773.69;;;15.36
42197;BMP280;27866;48.146;17.098;2023-04-24T21:49:57;98762.94;;;15.32
42197;BMP280;27866;48.146;17.098;2023-04-24T21:54:08;98773.34;;;15.32
42197;BMP280;27866;48.146;17.098;2023-04-24T21:58:19;98766.50;;;15.31
42197;BMP280;27866;48.146;17.098;2023-04-24T22:02:31;98759.31;;;15.33
42197;BMP280;27866;48.146;17.098;2023-04-24T22:06:42;98757.72;;;15.32
42197;BMP280;27866;48.146;17.098;2023-04-24T22:10:53;98749.22;;;15.30
42197;BMP280;27866;48.146;17.098;2023-04-24T22:15:05;98752.34;;;15.33
42197;BMP280;27866;48.146;17.098;2023-04-24T22:19:17;98761.16;;;15.40
42197;BMP280;27866;48.146;17.098;2023-04-24T22:23:28;98753.84;;;15.43
42197;BMP280;27866;48.146;17.098;2023-04-24T22:27:39;98754.50;;;15.45
42197;BMP280;27866;48.146;17.098;2023-04-24T22:31:50;98759.41;;;15.48
42197;BMP280;27866;48.146;17.098;2023-04-24T22:36:02;98771.44;;;15.49
42197;BMP280;27866;48.146;17.098;2023-04-24T22:40:13;98760.72;;;15.52
42197;BMP280;27866;48.146;17.098;2023-04-24T22:44:24;98768.19;;;15.47
42197;BMP280;27866;48.146;17.098;2023-04-24T22:48:36;98767.56;;;15.45
42197;BMP280;27866;48.146;17.098;2023-04-24T22:52:47;98769.84;;;15.48
42197;BMP280;27866;48.146;17.098;2023-04-24T22:56:58;98771.78;;;15.46
42197;BMP280;27866;48.146;17.098;2023-04-24T23:01:09;98775.69;;;15.42
42197;BMP280;27866;48.146;17.098;2023-04-24T23:05:21;98778.63;;;15.39
42197;BMP280;27866;48.146;17.098;2023-04-24T23:09:33;98775.16;;;15.31
42197;BMP280;27866;48.146;17.098;2023-04-24T23:13:44;98777.53;;;15.25
42197;BMP280;27866;48.146;17.098;2023-04-24T23:17:55;98777.50;;;15.17
42197;BMP280;27866;48.146;17.098;2023-04-24T23:22:06;98772.91;;;15.11
42197;BMP280;27866;48.146;17.098;2023-04-24T23:26:17;98770.50;;;15.18
42197;BMP280;27866;48.146;17.098;2023-04-24T23:30:29;98772.56;;;15.07
42197;BMP280;27866;48.146;17.098;2023-04-24T23:34:40;98773.72;;;15.12
42197;BMP280;27866;48.146;17.098;2023-04-24T23:38:51;98771.44;;;15.09
42197;BMP280;27866;48.146;17.098;2023-04-24T23:43:03;98763.47;;;15.10
42197;BMP280;27866;48.146;17.098;2023-04-24T23:47:15;98762.81;;;15.08
42197;BMP280;27866;48.146;17.098;2023-04-24T23:51:26;98764.75;;;15.07
42197;BMP280;27866;48.146;17.098;2023-04-24T23:55:37;98758.72;;;15.06
42197;BMP280;27866;48.146;17.098;2023-04-24T23:59:49;98777.47;;;15.09
